GosportINWX Station Historical Data
 
Daily Summary for October 18, 2021 Units:  English    Metric   Both
Daily Weekly Monthly Yearly Custom
  Current: High: Low: Average:
Temperature: 53.6 °F 69.6 °F 42.1 °F 54.9 °F
Dew Point: 45.9 °F 48.4 °F 39.4 °F 44 °F
Humidity: 74.9% 92% 40% 70%
Wind Speed: 0mph 7.5mph 0mph 1.4mph
Wind Gust: 0mph 10.5mph - -
WindCalm - - WSW
Pressure: 29.84 in 29.86 in 29.80 in -
Precipitation: 0.00 in      
 
 
Tabular Data for October 18, 2021
Time Temperature Dew Point Pressure Wind Wind Speed Wind Gust Humidity Rainfall Rate (Hourly) solar
00:04 50.1 °F 42.8 °F 29.84 in Calm     76% 0.00 in W/m2
00:09 49.9 °F 42.8 °F 29.83 in Calm     76.4% 0.00 in W/m2
00:14 49.6 °F 42.7 °F 29.83 in Calm     77% 0.00 in W/m2
00:19 49.4 °F 42.5 °F 29.83 in Calm     77% 0.00 in W/m2
00:24 49.3 °F 42.4 °F 29.83 in Calm     77% 0.00 in W/m2
00:29 49.2 °F 42.6 °F 29.83 in Calm     78% 0.00 in W/m2
00:34 49.2 °F 42.6 °F 29.83 in Calm     78% 0.00 in W/m2
00:39 49.2 °F 42.6 °F 29.82 in Calm     78% 0.00 in W/m2
00:44 49.2 °F 42.9 °F 29.83 in Calm     78.8% 0.00 in W/m2
00:49 49.2 °F 43 °F 29.83 in Calm     79% 0.00 in W/m2
00:54 49.1 °F 43.1 °F 29.82 in Calm     79.6% 0.00 in W/m2
00:59 49 °F 43.1 °F 29.82 in Calm     80% 0.00 in W/m2
01:04 48.9 °F 43 °F 29.82 in Calm     80% 0.00 in W/m2
01:09 48.8 °F 42.9 °F 29.83 in Calm     80% 0.00 in W/m2
01:14 48.8 °F 42.9 °F 29.82 in Calm     80% 0.00 in W/m2
01:19 48.8 °F 42.9 °F 29.83 in Calm     80% 0.00 in W/m2
01:24 48.8 °F 42.9 °F 29.82 in Calm     80% 0.00 in W/m2
01:29 48.8 °F 42.9 °F 29.82 in Calm     80% 0.00 in W/m2
01:34 48.8 °F 42.9 °F 29.82 in Calm     80% 0.00 in W/m2
01:39 48.8 °F 42.9 °F 29.82 in Calm     80% 0.00 in W/m2
01:44 48.7 °F 42.8 °F 29.82 in Calm     80% 0.00 in W/m2
01:49 48.7 °F 42.8 °F 29.82 in Calm     80% 0.00 in W/m2
01:54 48.6 °F 42.7 °F 29.82 in Calm     80% 0.00 in W/m2
01:59 48.5 °F 42.6 °F 29.82 in Calm     80% 0.00 in W/m2
02:04 48.5 °F 42.6 °F 29.82 in Calm     80% 0.00 in W/m2
02:09 48.5 °F 42.6 °F 29.82 in Calm     80% 0.00 in W/m2
02:14 48.5 °F 42.6 °F 29.82 in Calm     80% 0.00 in W/m2
02:19 48.5 °F 42.6 °F 29.82 in Calm     80% 0.00 in W/m2
02:24 48.6 °F 42.9 °F 29.82 in Calm     80.5% 0.00 in W/m2
02:29 48.9 °F 43 °F 29.82 in Calm     80% 0.00 in W/m2
02:34 49 °F 42.9 °F 29.82 in Calm     79.5% 0.00 in W/m2
02:39 48.9 °F 42.7 °F 29.82 in Calm     79% 0.00 in W/m2
02:44 48.8 °F 42.8 °F 29.82 in Calm     79.9% 0.00 in W/m2
02:49 48.7 °F 42.8 °F 29.82 in Calm     80% 0.00 in W/m2
02:54 48.5 °F 42.6 °F 29.82 in Calm     80% 0.00 in W/m2
02:59 48.4 °F 42.5 °F 29.82 in Calm     80% 0.00 in W/m2
03:04 48.3 °F 42.4 °F 29.82 in Calm     80.1% 0.00 in W/m2
03:09 48.1 °F 42.6 °F 29.82 in Calm     81% 0.00 in W/m2
03:14 47.9 °F 42.4 °F 29.82 in Calm     81% 0.00 in W/m2
03:19 47.8 °F 42.3 °F 29.82 in Calm     81% 0.00 in W/m2
03:24 47.8 °F 42.2 °F 29.82 in Calm     81% 0.00 in W/m2
03:29 47.6 °F 42 °F 29.81 in Calm     81% 0.00 in W/m2
03:34 47.6 °F 42 °F 29.82 in Calm     81.2% 0.00 in W/m2
03:39 47.4 °F 42.2 °F 29.81 in Calm     82% 0.00 in W/m2
03:44 47.3 °F 42.1 °F 29.81 in Calm     82% 0.00 in W/m2
03:49 47.1 °F 41.9 °F 29.81 in Calm     82% 0.00 in W/m2
03:54 46.9 °F 41.7 °F 29.81 in Calm     82% 0.00 in W/m2
03:59 46.8 °F 41.6 °F 29.81 in Calm     82% 0.00 in W/m2
04:04 46.7 °F 41.5 °F 29.81 in Calm     82% 0.00 in W/m2
04:09 46.5 °F 41.3 °F 29.81 in Calm     82% 0.00 in W/m2
04:14 46.3 °F 41.2 °F 29.81 in Calm     82.4% 0.00 in W/m2
04:19 46.1 °F 41.3 °F 29.81 in Calm     83% 0.00 in W/m2
04:24 46 °F 41.2 °F 29.81 in Calm     83% 0.00 in W/m2
04:29 46 °F 41.1 °F 29.81 in Calm     83% 0.00 in W/m2
04:34 46 °F 41.1 °F 29.81 in Calm     83% 0.00 in W/m2
04:39 45.8 °F 40.9 °F 29.81 in Calm     83% 0.00 in W/m2
04:44 45.8 °F 41 °F 29.81 in Calm     83.4% 0.00 in W/m2
04:49 45.8 °F 41.2 °F 29.81 in Calm     84% 0.00 in W/m2
04:54 45.7 °F 41.1 °F 29.81 in Calm     84% 0.00 in W/m2
04:59 45.6 °F 41 °F 29.81 in Calm     84% 0.00 in W/m2
05:04 45.6 °F 41 °F 29.81 in Calm     84.2% 0.00 in W/m2
05:09 45.4 °F 41.2 °F 29.82 in Calm     85% 0.00 in W/m2
05:14 45.2 °F 41.3 °F 29.81 in Calm     86% 0.00 in W/m2
05:19 45.2 °F 41.3 °F 29.81 in Calm     86% 0.00 in W/m2
05:24 45.5 °F 41.5 °F 29.82 in Calm     85.7% 0.00 in W/m2
05:29 45.6 °F 41.4 °F 29.81 in Calm     85% 0.00 in W/m2
05:34 45.6 °F 41.7 °F 29.81 in Calm     86% 0.00 in W/m2
05:39 45.8 °F 41.8 °F 29.82 in Calm     86% 0.00 in W/m2
05:44 45.1 °F 41.1 °F 29.82 in Calm     86% 0.00 in W/m2
05:49 44.6 °F 40.7 °F 29.82 in Calm     86% 0.00 in W/m2
05:54 44.5 °F 40.8 °F 29.82 in Calm     86.7% 0.00 in W/m2
05:59 44.3 °F 40.7 °F 29.81 in Calm     87% 0.00 in W/m2
06:04 44.2 °F 40.6 °F 29.81 in Calm     87% 0.00 in W/m2
06:09 44.2 °F 40.6 °F 29.82 in Calm     87% 0.00 in W/m2
06:14 44.1 °F 40.4 °F 29.82 in Calm     87% 0.00 in W/m2
06:19 44 °F 40.4 °F 29.82 in Calm     87% 0.00 in W/m2
06:24 43.8 °F 40.2 °F 29.82 in Calm     87% 0.00 in W/m2
06:29 43.7 °F 40.3 °F 29.82 in Calm     87.8% 0.00 in W/m2
06:34 43.5 °F 40.2 °F 29.83 in Calm     88% 0.00 in W/m2
06:39 43.5 °F 40.2 °F 29.82 in Calm     88% 0.00 in W/m2
06:44 43.3 °F 40 °F 29.82 in Calm     88% 0.00 in W/m2
06:49 43.3 °F 40 °F 29.82 in Calm     88% 0.00 in W/m2
06:54 43.2 °F 39.8 °F 29.82 in Calm     88% 0.00 in W/m2
06:59 43.2 °F 39.8 °F 29.82 in Calm     88% 0.00 in W/m2
07:04 43.2 °F 39.8 °F 29.82 in Calm     88% 0.00 in W/m2
07:09 43.2 °F 39.8 °F 29.82 in Calm     88% 0.00 in W/m2
07:14 43 °F 39.7 °F 29.82 in Calm     88% 0.00 in W/m2
07:19 43 °F 39.7 °F 29.82 in Calm     88% 0.00 in W/m2
07:24 42.8 °F 39.5 °F 29.82 in Calm     88% 0.00 in W/m2
07:29 42.7 °F 39.6 °F 29.82 in Calm     88.5% 0.00 in W/m2
07:34 42.6 °F 39.7 °F 29.82 in Calm     89.2% 0.00 in W/m2
07:39 42.6 °F 39.9 °F 29.82 in Calm     90% 0.00 in W/m2
07:44 42.6 °F 39.9 °F 29.82 in Calm     90% 0.00 in W/m2
07:49 42.5 °F 39.8 °F 29.82 in Calm     90% 0.00 in W/m2
07:54 42.4 °F 39.7 °F 29.83 in Calm     90% 0.00 in W/m2
07:59 42.3 °F 39.5 °F 29.83 in Calm     90% 0.00 in W/m2
08:04 42.3 °F 39.5 °F 29.83 in Calm     90% 0.00 in W/m2
08:09 42.2 °F 39.5 °F 29.83 in Calm     90% 0.00 in W/m2
08:14 42.1 °F 39.4 °F 29.83 in Calm     90% 0.00 in W/m2
08:19 42.1 °F 39.4 °F 29.83 in Calm     90% 0.00 in W/m2
08:24 42.1 °F 39.4 °F 29.83 in Calm     90% 0.00 in W/m2
08:29 42.1 °F 39.4 °F 29.83 in Calm     90% 0.00 in W/m2
08:34 42.1 °F 39.4 °F 29.83 in Calm     90.2% 0.00 in W/m2
08:39 42.2 °F 39.7 °F 29.83 in Calm     91% 0.00 in W/m2
08:44 42.3 °F 39.8 °F 29.83 in Calm     91% 0.00 in W/m2
08:49 42.4 °F 40 °F 29.84 in Calm     91% 0.00 in W/m2
08:54 42.4 °F 40 °F 29.84 in Calm     91% 0.00 in W/m2
08:59 42.6 °F 40.2 °F 29.84 in Calm     90.9% 0.00 in W/m2
09:04 42.8 °F 40.3 °F 29.84 in Calm     90.6% 0.00 in W/m2
09:09 43.1 °F 40.6 °F 29.84 in Calm     91% 0.00 in W/m2
09:14 43.4 °F 41 °F 29.84 in Calm     91.1% 0.00 in W/m2
09:19 44.1 °F 41.9 °F 29.84 in Calm     92% 0.00 in W/m2
09:24 44.9 °F 42.5 °F 29.84 in Calm     91.2% 0.00 in W/m2
09:29 45.8 °F 43.6 °F 29.84 in Calm     92% 0.00 in W/m2
09:34 46.5 °F 44.1 °F 29.84 in Calm     91.3% 0.00 in W/m2
09:39 47 °F 44.5 °F 29.85 in Calm     91% 0.00 in W/m2
09:44 47.7 °F 45.2 °F 29.85 in Calm     91% 0.00 in W/m2
09:49 48.4 °F 45.6 °F 29.85 in Calm     90.2% 0.00 in W/m2
09:54 48.8 °F 46 °F 29.85 in Calm     90% 0.00 in W/m2
09:59 49.5 °F 46.5 °F 29.85 in Calm     89.3% 0.00 in W/m2
10:04 50 °F 46.6 °F 29.85 in Calm     88% 0.00 in W/m2
10:09 50.3 °F 46.8 °F 29.85 in Calm     87.5% 0.00 in W/m2
10:14 51.2 °F 47.4 °F 29.85 in Calm     87% 0.00 in W/m2
10:19 51.9 °F 47.8 °F 29.85 in Calm     85.6% 0.00 in W/m2
10:24 52.6 °F 48.1 °F 29.85 in Calm     84.4% 0.00 in W/m2
10:29 53.2 °F 48.3 °F 29.85 in Calm     83.3% 0.00 in W/m2
10:34 53.7 °F 48.1 °F 29.85 in Calm     81.4% 0.00 in W/m2
10:39 54.2 °F 48 °F 29.85 in Calm     79.7% 0.00 in W/m2
10:44 54.6 °F 47.8 °F 29.86 in Calm     77.5% 0.00 in W/m2
10:49 55.1 °F 47.5 °F 29.86 in Calm     75.5% 0.00 in W/m2
10:54 55.6 °F 47.4 °F 29.86 in Calm     74.2% 0.00 in W/m2
10:59 56 °F 47.1 °F 29.86 in SW 4.3 mph 7.4 mph 72% 0.00 in W/m2
11:04 56.5 °F 47 °F 29.86 in SW 4.9 mph 7.4 mph 70.4% 0.00 in W/m2
11:09 56.9 °F 46.8 °F 29.86 in SW 2.5 mph 7.4 mph 69% 0.00 in W/m2
11:14 57.1 °F 46.8 °F 29.86 in SW 0.2 mph 6.1 mph 68.7% 0.00 in W/m2
11:19 57.5 °F 46.7 °F 29.86 in Calm   4.4 mph 67.3% 0.00 in W/m2
11:24 57.7 °F 46.9 °F 29.86 in SW 1.1 mph 4.4 mph 67% 0.00 in W/m2
11:29 57.9 °F 47 °F 29.86 in SW 0.9 mph 4.4 mph 67% 0.00 in W/m2
11:34 58.3 °F 47.3 °F 29.86 in SW 3.3 mph 4.4 mph 67% 0.00 in W/m2
11:39 58.8 °F 47.7 °F 29.86 in SW 3.8 mph 6.1 mph 66.6% 0.00 in W/m2
11:44 59.3 °F 47.7 °F 29.86 in SW 3.8 mph 6.1 mph 65.6% 0.00 in W/m2
11:49 59.5 °F 47.7 °F 29.86 in SW 4.3 mph 6.1 mph 65% 0.00 in W/m2
11:54 59.9 °F 48 °F 29.86 in SW 4.7 mph 6.1 mph 64.8% 0.00 in W/m2
11:59 60.1 °F 47.9 °F 29.85 in SW 5 mph 7.4 mph 64% 0.00 in W/m2
12:04 60.1 °F 47.9 °F 29.86 in SW 7.4 mph 7.4 mph 64% 0.00 in W/m2
12:09 60.4 °F 48.1 °F 29.86 in SW 5.5 mph 7.4 mph 63.7% 0.00 in W/m2
12:14 60.9 °F 48 °F 29.86 in SW 0.7 mph 7.4 mph 62.3% 0.00 in W/m2
12:19 61.2 °F 48 °F 29.86 in SW 1.1 mph 7.4 mph 62% 0.00 in W/m2
12:24 61.4 °F 48.2 °F 29.85 in SW 4 mph 6.1 mph 61.8% 0.00 in W/m2
12:29 62.1 °F 47.7 °F 29.86 in WSW 4 mph 6.1 mph 59.3% 0.00 in W/m2
12:34 62.5 °F 47.9 °F 29.86 in West 3.7 mph 6.1 mph 58.8% 0.00 in W/m2
12:39 62.8 °F 47.6 °F 29.86 in West 4.7 mph 7.4 mph 57.6% 0.00 in W/m2
12:44 63.2 °F 47.2 °F 29.86 in West 5.2 mph 7.4 mph 56% 0.00 in W/m2
12:49 63.4 °F 47.1 °F 29.86 in West 3.7 mph 7.4 mph 55.3% 0.00 in W/m2
12:54 63.7 °F 46.9 °F 29.86 in West 2.4 mph 7.4 mph 54.5% 0.00 in W/m2
12:59 63.9 °F 47.4 °F 29.86 in West 4.2 mph 7.4 mph 54.9% 0.00 in W/m2
13:04 64.4 °F 47.6 °F 29.86 in WSW 5.3 mph 6.1 mph 54.5% 0.00 in W/m2
13:09 64.6 °F 47.8 °F 29.86 in West 4.6 mph 6.1 mph 54.5% 0.00 in W/m2
13:14 64.7 °F 48 °F 29.86 in West 3.8 mph 6.1 mph 54.7% 0.00 in W/m2
13:19 65 °F 48.4 °F 29.86 in WNW 4.1 mph 7.4 mph 55% 0.00 in W/m2
13:24 65.6 °F 47.2 °F 29.86 in West 4.9 mph 7.4 mph 51.6% 0.00 in W/m2
13:29 65.9 °F 47.2 °F 29.85 in West 5.3 mph 7.4 mph 50.8% 0.00 in W/m2
13:34 66.4 °F 45.8 °F 29.85 in West 5.9 mph 8.8 mph 47.6% 0.00 in W/m2
13:39 66.6 °F 45.9 °F 29.85 in West 3.7 mph 8.8 mph 47.2% 0.00 in W/m2
13:44 66.9 °F 46.3 °F 29.84 in NW 4.6 mph 8.8 mph 47.5% 0.00 in W/m2
13:49 67.1 °F 46 °F 29.84 in WNW 6.2 mph 7.4 mph 46.7% 0.00 in W/m2
13:54 67.1 °F 45.8 °F 29.84 in WNW 6.2 mph 8.8 mph 46.4% 0.00 in W/m2
13:59 67.1 °F 45 °F 29.84 in West 4.2 mph 8.8 mph 45% 0.00 in W/m2
14:04 67.3 °F 45.2 °F 29.84 in West 3.1 mph 8.8 mph 45% 0.00 in W/m2
14:09 67.6 °F 45.8 °F 29.84 in WNW 5.1 mph 8.8 mph 45.5% 0.00 in W/m2
14:14 67.9 °F 46.5 °F 29.83 in WNW 4.2 mph 8.8 mph 46.2% 0.00 in W/m2
14:19 68.2 °F 46.3 °F 29.83 in West 5.9 mph 8.8 mph 45.6% 0.00 in W/m2
14:24 68.2 °F 45.4 °F 29.83 in WNW 6.9 mph 8.8 mph 43.9% 0.00 in W/m2
14:29 68.2 °F 45.1 °F 29.83 in West 6.4 mph 8.8 mph 43.5% 0.00 in W/m2
14:34 68.4 °F 45.2 °F 29.83 in West 3.7 mph 8.8 mph 43.4% 0.00 in W/m2
14:39 68.4 °F 45.7 °F 29.82 in West 5.4 mph 8.8 mph 44.1% 0.00 in W/m2
14:44 68.4 °F 45.8 °F 29.82 in West 4.6 mph 8.8 mph 44.2% 0.00 in W/m2
14:49 68.4 °F 46.4 °F 29.82 in West 5.3 mph 8.8 mph 45.3% 0.00 in W/m2
14:54 68.5 °F 46.1 °F 29.82 in West 5.8 mph 8.8 mph 44.6% 0.00 in W/m2
14:59 68.5 °F 45.7 °F 29.82 in West 5.5 mph 8.8 mph 43.9% 0.00 in W/m2
15:04 68.6 °F 45.5 °F 29.81 in West 5.3 mph 8.8 mph 43.5% 0.00 in W/m2
15:09 68.7 °F 45.9 °F 29.82 in West 2.6 mph 8.8 mph 44% 0.00 in W/m2
15:14 69 °F 45.8 °F 29.82 in West 6 mph 8.8 mph 43.5% 0.00 in W/m2
15:19 69.1 °F 45.2 °F 29.81 in WSW 6 mph 8.8 mph 42.3% 0.00 in W/m2
15:24 69.1 °F 45.6 °F 29.81 in West 7.5 mph 10.5 mph 43% 0.00 in W/m2
15:29 69.1 °F 45.3 °F 29.81 in West 4.6 mph 10.5 mph 42.5% 0.00 in W/m2
15:34 69.2 °F 46 °F 29.81 in West 5 mph 10.5 mph 43.6% 0.00 in W/m2
15:39 69.1 °F 45.7 °F 29.81 in West 5.9 mph 8.8 mph 43.1% 0.00 in W/m2
15:44 69.1 °F 45.5 °F 29.81 in West 3.7 mph 8.8 mph 42.9% 0.00 in W/m2
15:49 69.2 °F 45.6 °F 29.81 in West 3.3 mph 8.8 mph 42.8% 0.00 in W/m2
15:54 69.4 °F 45.8 °F 29.81 in West 5.4 mph 8.8 mph 42.8% 0.00 in W/m2
15:59 69.4 °F 45.1 °F 29.81 in SW 5.8 mph 8.8 mph 41.7% 0.00 in W/m2
16:04 69.4 °F 44.7 °F 29.81 in West 3.1 mph 8.8 mph 41% 0.00 in W/m2
16:09 69.4 °F 45.4 °F 29.81 in WNW 4.9 mph 8.8 mph 42% 0.00 in W/m2
16:14 69.4 °F 45.5 °F 29.80 in WNW 4.8 mph 7.4 mph 42.3% 0.00 in W/m2
16:19 69.4 °F 44.5 °F 29.81 in West 6.1 mph 7.4 mph 40.6% 0.00 in W/m2
16:24 69.6 °F 45.5 °F 29.81 in West 6.8 mph 7.4 mph 42% 0.00 in W/m2
16:29 69.4 °F 44.1 °F 29.81 in WSW 6.3 mph 10.5 mph 40% 0.00 in W/m2
16:34 69.4 °F 44.7 °F 29.81 in SW 4.3 mph 10.5 mph 40.9% 0.00 in W/m2
16:39 69.4 °F 44.6 °F 29.81 in SW 3.6 mph 10.5 mph 40.8% 0.00 in W/m2
16:44 69.4 °F 44.9 °F 29.81 in WSW 6.2 mph 7.4 mph 41.3% 0.00 in W/m2
16:49 69.4 °F 44.1 °F 29.81 in West 2.7 mph 8.8 mph 40.1% 0.00 in W/m2
16:54 69.3 °F 44.4 °F 29.80 in West 3.9 mph 8.8 mph 40.7% 0.00 in W/m2
16:59 69.3 °F 44.2 °F 29.80 in West 5.3 mph 8.8 mph 40.5% 0.00 in W/m2
17:04 69.3 °F 44 °F 29.80 in West 3.3 mph 7.4 mph 40.1% 0.00 in W/m2
17:09 69.4 °F 45.1 °F 29.80 in West 3.1 mph 7.4 mph 41.7% 0.00 in W/m2
17:14 69.3 °F 44.4 °F 29.80 in West 3 mph 6.1 mph 40.8% 0.00 in W/m2
17:19 69.3 °F 44.6 °F 29.80 in West 3.2 mph 6.1 mph 41.1% 0.00 in W/m2
17:24 69.2 °F 44.4 °F 29.80 in WSW 5.4 mph 7.4 mph 41% 0.00 in W/m2
17:29 69.1 °F 44 °F 29.80 in WSW 2.5 mph 7.4 mph 40.5% 0.00 in W/m2
17:34 68.9 °F 44.4 °F 29.80 in WSW 2.8 mph 7.4 mph 41.2% 0.00 in W/m2
17:39 68.8 °F 44.5 °F 29.80 in SSW 4.7 mph 6.1 mph 41.4% 0.00 in W/m2
17:44 68.7 °F 44.3 °F 29.80 in WSW 2.5 mph 6.1 mph 41.3% 0.00 in W/m2
17:49 68.7 °F 44 °F 29.80 in West 2 mph 6.1 mph 40.8% 0.00 in W/m2
17:54 68.7 °F 44 °F 29.80 in West 0.2 mph 6.1 mph 40.9% 0.00 in W/m2
17:59 68.7 °F 44.7 °F 29.80 in WSW 2.2 mph 6.1 mph 42% 0.00 in W/m2
18:04 68.5 °F 44.6 °F 29.80 in SW 3.2 mph 6.1 mph 42.2% 0.00 in W/m2
18:09 68.3 °F 45 °F 29.80 in Calm   6.1 mph 43.2% 0.00 in W/m2
18:14 67.8 °F 45.8 °F 29.81 in Calm   4.4 mph 45.2% 0.00 in W/m2
18:19 66.6 °F 46.3 °F 29.80 in Calm     48% 0.00 in W/m2
18:24 65.4 °F 46.5 °F 29.80 in SW 2.7 mph 3.1 mph 50.5% 0.00 in W/m2
18:29 64.3 °F 46.4 °F 29.80 in SW 1.7 mph 3.1 mph 52% 0.00 in W/m2
18:34 63.6 °F 46.1 °F 29.81 in SW 1.2 mph 3.1 mph 53% 0.00 in W/m2
18:39 62.8 °F 45.8 °F 29.81 in SW 1.3 mph 3.1 mph 53.8% 0.00 in W/m2
18:44 62.3 °F 45.9 °F 29.81 in SW 0.2 mph 3.1 mph 54.9% 0.00 in W/m2
18:49 61.7 °F 46.2 °F 29.81 in Calm   3.1 mph 56.8% 0.00 in W/m2
18:54 61.2 °F 45.9 °F 29.81 in Calm   1.3 mph 57.1% 0.00 in W/m2
18:59 60.8 °F 46.2 °F 29.81 in Calm     58.7% 0.00 in W/m2
19:04 60.3 °F 46.4 °F 29.81 in Calm     60% 0.00 in W/m2
19:09 59.9 °F 46 °F 29.81 in Calm     60% 0.00 in W/m2
19:14 59.5 °F 45.7 °F 29.81 in Calm     60.1% 0.00 in W/m2
19:19 59.2 °F 46 °F 29.81 in Calm     61.6% 0.00 in W/m2
19:24 58.7 °F 46.6 °F 29.81 in Calm     63.9% 0.00 in W/m2
19:29 58.4 °F 46.3 °F 29.82 in Calm     64.2% 0.00 in W/m2
19:34 57.9 °F 46.4 °F 29.82 in Calm     65.4% 0.00 in W/m2
19:39 57.5 °F 46.2 °F 29.82 in Calm     66% 0.00 in W/m2
19:44 57.1 °F 46.4 °F 29.82 in Calm     67.4% 0.00 in W/m2
19:49 56.9 °F 46.5 °F 29.82 in Calm     68% 0.00 in W/m2
19:54 56.7 °F 46.2 °F 29.82 in Calm     68% 0.00 in W/m2
19:59 56.5 °F 46 °F 29.82 in Calm     68% 0.00 in W/m2
20:04 56.3 °F 45.9 °F 29.82 in Calm     68% 0.00 in W/m2
20:09 56.1 °F 45.8 °F 29.82 in Calm     68.2% 0.00 in W/m2
20:14 55.9 °F 45.9 °F 29.82 in Calm     69% 0.00 in W/m2
20:19 55.8 °F 45.7 °F 29.82 in Calm     69% 0.00 in W/m2
20:24 55.7 °F 45.6 °F 29.83 in Calm     69% 0.00 in W/m2
20:29 55.2 °F 45.9 °F 29.83 in Calm     70.7% 0.00 in W/m2
20:34 55 °F 46.1 °F 29.83 in Calm     71.9% 0.00 in W/m2
20:39 54.8 °F 45.9 °F 29.83 in Calm     72% 0.00 in W/m2
20:44 54.6 °F 45.9 °F 29.83 in Calm     72.5% 0.00 in W/m2
20:49 54.5 °F 46 °F 29.83 in Calm     73% 0.00 in W/m2
20:54 54.3 °F 45.8 °F 29.83 in Calm     73% 0.00 in W/m2
20:59 54.2 °F 45.7 °F 29.83 in Calm     73% 0.00 in W/m2
21:04 54.1 °F 45.9 °F 29.83 in Calm     73.8% 0.00 in W/m2
21:09 54 °F 45.9 °F 29.83 in Calm     74% 0.00 in W/m2
21:14 53.8 °F 45.7 °F 29.83 in Calm     74% 0.00 in W/m2
21:19 53.8 °F 45.7 °F 29.83 in Calm     74.1% 0.00 in W/m2
21:24 53.6 °F 45.9 °F 29.84 in Calm     74.9% 0.00 in W/m2
Juneau County Weather
Compliments of Weather Underground - 4 mb